Terminal Aerodrome Forecast
Issued by NWS

Home | Current Version | Previous Version | Text Only | Print | Product List | Glossary On
Versions: 1 2 3 4 5 6 7 8 9 10 11 12 13 14 15 16 17 18 19 20 21
000
FTAK31 PAFA 282130 AAA
TAFASC
TAF AMD
PASC 282130Z 2822/2918 08021KT P6SM FEW006
     FM290900 08015KT 6SM BR BKN005 OVC015
     FM291200 08015KT 1/2SM FG BKN005 OVC015=

USA.gov is the U.S. government's official web portal to all federal, state and local government web resources and services.